Time;durP1;ratioP1;P1;durP2;ratioP2;P2;SDS_P1;SDS_P2;PMS_P1;PMS_P2;Temp;Humidity;BMP_temperature;BMP_pressure;BME280_temperature;BME280_humidity;BME280_pressure;Samples;Min_cycle;Max_cycle;Signal;HPM_P1;HPM_P2
2022/12/16 00:01:10;;;;;;;24.40;16.10;;;-1.20;80.70;;;-2.06;80.21;96728.31;5013656;28;20514;-72
2022/12/16 00:03:39;;;;;;;22.43;15.47;;;-1.30;81.10;;;-2.08;79.85;96702.00;5011906;28;20482;-71
2022/12/16 00:06:08;;;;;;;26.83;16.27;;;-1.30;82.30;;;-1.95;80.26;96716.53;5035262;28;20563;-70
2022/12/16 00:08:38;;;;;;;24.00;16.70;;;-1.20;82.80;;;-2.04;80.94;96715.72;5023073;28;20458;-69
2022/12/16 00:11:08;;;;;;;25.90;17.67;;;-1.30;83.60;;;-2.13;82.33;96725.50;5015315;28;20461;-70
2022/12/16 00:13:39;;;;;;;30.10;16.97;;;-1.40;85.00;;;-2.03;82.36;96725.31;5015974;28;20508;-72
2022/12/16 00:16:09;;;;;;;27.50;17.80;;;-1.50;87.60;;;-2.15;82.52;96715.06;5014034;28;20468;-71
2022/12/16 00:18:36;;;;;;;27.23;17.20;;;-1.40;87.70;;;-2.21;83.02;96736.06;5016769;28;21045;-72
2022/12/16 00:21:04;;;;;;;26.87;16.47;;;-1.50;88.60;;;-3.50;83.86;96560.19;5014980;28;20464;-70
2022/12/16 00:23:32;;;;;;;21.67;16.67;;;-1.60;88.50;;;-2.42;84.03;96740.91;5013041;28;20452;-70
2022/12/16 00:25:59;;;;;;;30.80;18.17;;;-1.70;89.30;;;-2.44;84.46;96736.75;5016716;28;20843;-70
2022/12/16 00:28:28;;;;;;;27.50;17.37;;;-1.70;90.10;;;-2.25;84.56;96730.31;5015094;28;20964;-72
2022/12/16 00:30:56;;;;;;;32.07;17.13;;;-1.70;90.90;;;-2.21;83.83;96730.78;5016617;28;20876;-71
2022/12/16 00:33:26;;;;;;;27.97;17.23;;;-1.60;90.50;;;-2.15;83.34;96723.00;5016230;28;20530;-72
2022/12/16 00:35:54;;;;;;;28.53;17.17;;;-1.50;90.00;;;-2.24;83.20;96723.19;5013999;28;20458;-69
2022/12/16 00:38:22;;;;;;;25.03;16.80;;;-1.40;88.60;;;-2.35;83.18;96740.22;5013798;28;20474;-71
2022/12/16 00:40:50;;;;;;;25.67;17.77;;;-1.60;88.00;;;-2.23;83.85;96732.78;5016268;28;20492;-71
2022/12/16 00:43:18;;;;;;;26.80;17.17;;;-1.50;90.00;;;-2.03;82.51;96723.50;5028813;28;21029;-71
2022/12/16 00:45:48;;;;;;;29.20;18.40;;;-1.40;89.60;;;-2.03;82.43;96720.88;5013521;28;20701;-70
2022/12/16 00:48:15;;;;;;;29.73;17.30;;;-1.40;87.40;;;-2.17;82.77;96716.25;5030450;28;20458;-71
2022/12/16 00:50:47;;;;;;;28.83;16.63;;;-1.50;87.70;;;-2.08;82.77;96709.94;5014072;28;20471;-72
2022/12/16 00:53:14;;;;;;;30.53;17.27;;;-1.40;88.30;;;-2.12;83.27;96719.22;5017464;28;20466;-70
2022/12/16 00:55:41;;;;;;;26.60;16.50;;;-1.40;89.00;;;-2.25;83.28;96709.13;5013890;28;20471;-70
2022/12/16 00:58:08;;;;;;;26.30;15.97;;;-1.50;89.00;;;-2.85;83.25;96608.78;5013037;28;20472;-70
2022/12/16 01:00:36;;;;;;;29.63;18.57;;;-1.40;89.20;;;-2.18;83.41;96717.25;5013696;28;21008;-72
2022/12/16 01:03:04;;;;;;;30.53;17.33;;;-1.50;88.20;;;-2.05;82.98;96714.88;5011876;28;20506;-75
2022/12/16 01:05:31;;;;;;;28.10;16.40;;;-1.50;89.20;;;-2.12;82.89;96713.91;5016285;28;20969;-71
2022/12/16 01:07:59;;;;;;;28.33;17.60;;;-1.50;90.00;;;-2.06;83.08;96723.81;5015962;28;20540;-71
2022/12/16 01:10:26;;;;;;;31.43;19.00;;;-1.40;90.00;;;-2.01;83.06;96720.69;5016329;28;20557;-70
2022/12/16 01:12:53;;;;;;;31.50;19.70;;;-1.40;89.80;;;-2.02;82.78;96719.03;5012717;28;20470;-71
2022/12/16 01:15:21;;;;;;;30.63;18.87;;;-1.40;89.10;;;-1.91;82.42;96736.38;5012905;28;20460;-70
2022/12/16 01:17:48;;;;;;;27.40;17.30;;;-1.40;90.00;;;-1.77;82.45;96735.69;5030924;28;20479;-69
2022/12/16 01:20:17;;;;;;;31.90;18.20;;;-1.30;90.00;;;-1.73;81.42;96737.03;5013300;28;20455;-69
2022/12/16 01:22:44;;;;;;;25.80;18.27;;;-1.30;88.40;;;-1.90;81.99;96717.69;5024482;28;20510;-69
2022/12/16 01:25:12;;;;;;;28.40;17.30;;;-1.30;88.20;;;-1.72;80.94;96733.38;5038568;28;20453;-72
2022/12/16 01:27:40;;;;;;;33.97;19.07;;;-1.20;87.00;;;-2.11;81.93;96714.75;5027326;28;20459;-71
2022/12/16 01:30:10;;;;;;;26.40;17.90;;;-1.30;86.00;;;-2.07;82.53;96738.06;5021834;28;20529;-71
2022/12/16 01:32:38;;;;;;;32.43;18.57;;;-1.40;88.60;;;-2.04;81.63;96729.81;5028434;28;20468;-69
2022/12/16 01:35:06;;;;;;;34.17;18.70;;;-1.40;86.80;;;-1.88;80.80;96746.66;5015509;28;20481;-69
2022/12/16 01:37:35;;;;;;;30.10;17.67;;;-1.30;86.30;;;-2.04;81.77;96745.69;5021030;28;20509;-69
2022/12/16 01:40:02;;;;;;;30.00;18.87;;;-1.30;86.10;;;-2.44;82.99;96742.03;5022144;28;20471;-70
2022/12/16 01:42:32;;;;;;;28.40;18.10;;;-1.60;86.20;;;-2.17;83.50;96751.47;5024007;28;20459;-70
2022/12/16 01:45:30;;;;;;;32.27;19.47;;;-1.60;90.00;;;-2.30;85.25;96754.63;5018916;28;20465;-73
2022/12/16 01:48:01;;;;;;;32.00;19.23;;;-1.60;90.10;;;-2.47;86.26;96743.19;5015899;28;20446;-70
2022/12/16 01:50:30;;;;;;;28.83;20.17;;;-1.70;91.30;;;-2.39;86.04;96749.50;5013099;28;20470;-72
2022/12/16 01:53:03;;;;;;;29.33;19.10;;;-1.70;92.40;;;-2.25;86.04;96730.31;5034713;28;20481;-70
2022/12/16 01:55:35;;;;;;;33.07;19.57;;;-1.60;93.10;;;-2.36;86.20;96734.09;5016716;28;20462;-71
2022/12/16 01:58:08;;;;;;;33.23;20.67;;;-1.60;92.70;;;-2.35;86.17;96746.34;5022003;28;20480;-69
2022/12/16 02:00:37;;;;;;;36.37;21.87;;;-1.70;93.00;;;-2.49;86.80;96747.81;5015575;28;20455;-70
2022/12/16 02:03:07;;;;;;;32.70;21.40;;;-1.80;93.40;;;-2.40;86.99;96740.72;5025118;28;20946;-69
2022/12/16 02:05:38;;;;;;;31.37;20.43;;;-1.80;94.40;;;-2.56;86.87;96723.84;5017049;28;20674;-70
2022/12/16 02:08:13;;;;;;;38.13;21.03;;;-1.80;94.10;;;-2.59;87.40;96755.91;5040154;28;20931;-70
2022/12/16 02:10:58;;;;;;;35.13;22.27;;;-1.80;94.40;;;-2.31;87.45;96754.78;5015946;28;20462;-70
2022/12/16 02:13:38;;;;;;;34.73;21.87;;;-1.80;95.20;;;-2.35;86.79;96756.09;5014660;28;20464;-72
2022/12/16 02:16:14;;;;;;;33.80;21.80;;;-1.80;95.50;;;-2.19;86.77;96750.81;5015714;28;20464;-71
2022/12/16 02:18:52;;;;;;;37.63;20.50;;;-1.60;95.50;;;-2.47;87.01;96752.97;5017548;28;20483;-70
2022/12/16 02:21:38;;;;;;;32.80;20.03;;;-1.70;94.20;;;-2.53;87.50;96758.88;5022125;28;20944;-72
2022/12/16 02:24:47;;;;;;;37.53;20.03;;;-1.90;94.70;;;-2.88;87.93;96757.19;5031766;28;20474;-70
2022/12/16 02:27:50;;;;;;;37.27;19.17;;;-1.90;94.40;;;-2.94;88.77;96751.69;4975034;28;20551;-72
2022/12/16 02:30:32;;;;;;;31.77;20.70;;;-2.00;95.10;;;-2.90;88.88;96759.16;5011589;28;20463;-70
2022/12/16 02:33:12;;;;;;;34.97;20.53;;;-2.10;95.80;;;-3.03;89.27;96769.34;5020479;28;20451;-69
2022/12/16 02:35:45;;;;;;;35.53;20.97;;;-2.20;96.40;;;-3.06;89.26;96761.75;5029862;28;20557;-69
2022/12/16 02:38:25;;;;;;;32.70;20.73;;;-2.20;97.40;;;-3.06;89.80;96774.97;5013138;28;20535;-70
2022/12/16 02:41:00;;;;;;;36.57;20.03;;;-2.20;97.40;;;-2.98;88.89;96774.97;5029537;28;20457;-69
2022/12/16 02:43:48;;;;;;;38.97;20.77;;;-2.20;97.90;;;-2.82;89.15;96776.00;5008598;28;20454;-69
2022/12/16 02:46:19;;;;;;;34.57;19.70;;;-2.20;98.40;;;-2.87;88.24;96771.22;5014502;28;20473;-69
2022/12/16 02:48:46;;;;;;;33.07;19.60;;;-2.10;98.10;;;-3.09;89.06;96765.53;5029596;28;20462;-70
2022/12/16 02:51:14;;;;;;;36.00;22.00;;;-2.20;96.50;;;-3.24;89.08;96757.41;5012157;28;20455;-69
2022/12/16 02:53:43;;;;;;;30.50;19.73;;;-2.20;96.90;;;-2.94;88.68;96767.56;5011760;28;20471;-71
2022/12/16 02:56:26;;;;;;;37.27;19.90;;;-2.20;97.40;;;-3.15;89.50;96782.84;5011839;28;20528;-70
2022/12/16 02:59:08;;;;;;;33.27;20.60;;;-2.20;96.80;;;-3.00;88.72;96774.31;5014331;28;20564;-72
2022/12/16 03:01:43;;;;;;;30.90;18.70;;;-2.20;96.90;;;-2.99;88.74;96778.59;5029283;28;20462;-72
2022/12/16 03:04:15;;;;;;;33.40;21.13;;;-2.20;96.90;;;-2.89;88.58;96781.97;5028608;28;20527;-70
2022/12/16 03:06:48;;;;;;;34.00;18.83;;;-2.20;97.80;;;-2.90;87.97;96764.44;5018260;28;20538;-70
2022/12/16 03:09:28;;;;;;;35.63;20.00;;;-2.10;97.90;;;-2.73;88.14;96775.91;5020550;28;20454;-72
2022/12/16 03:11:57;;;;;;;31.63;20.40;;;-2.00;96.80;;;-2.72;88.17;96782.00;5018019;28;20957;-72
2022/12/16 03:14:30;;;;;;;33.30;20.40;;;-2.00;96.90;;;-2.74;88.31;96776.03;5015088;28;20455;-70
2022/12/16 03:16:59;;;;;;;30.80;19.67;;;-2.10;96.50;;;-2.63;88.06;96788.97;5013498;28;20467;-71
2022/12/16 03:19:29;;;;;;;32.33;20.77;;;-2.00;97.20;;;-2.44;88.08;96801.06;5020761;28;20960;-69
2022/12/16 03:22:03;;;;;;;30.23;19.63;;;-1.90;97.20;;;-2.54;87.08;96794.25;5016259;28;20471;-69
2022/12/16 03:24:31;;;;;;;30.80;19.60;;;-1.90;96.10;;;-2.58;87.38;96793.75;5014838;28;20538;-69
2022/12/16 03:27:06;;;;;;;34.13;19.93;;;-1.90;95.30;;;-2.64;87.27;96789.97;5018417;28;20458;-69
2022/12/16 03:29:41;;;;;;;28.60;18.33;;;-2.00;94.80;;;-2.81;87.87;96794.38;5018043;28;20460;-70
2022/12/16 03:32:16;;;;;;;32.67;19.80;;;-2.10;94.80;;;-2.90;87.89;96782.94;5016519;28;21042;-69
2022/12/16 03:34:49;;;;;;;30.73;19.07;;;-2.20;95.30;;;-3.04;88.88;96797.59;5026692;28;21024;-70
2022/12/16 03:37:19;;;;;;;32.23;19.10;;;-2.30;95.00;;;-2.95;88.69;96798.47;5018162;28;20467;-70
2022/12/16 03:39:50;;;;;;;29.60;19.40;;;-2.30;95.60;;;-2.95;87.55;96781.75;5023109;28;20467;-69
2022/12/16 03:42:18;;;;;;;35.70;19.23;;;-2.20;97.00;;;-2.89;88.22;96810.19;5018270;28;20474;-69
2022/12/16 03:44:47;;;;;;;30.43;18.30;;;-2.30;96.20;;;-2.71;87.96;96812.75;5022134;28;20460;-70
2022/12/16 03:47:15;;;;;;;30.03;18.33;;;-2.20;97.30;;;-2.67;87.38;96822.00;5013501;28;20508;-70
2022/12/16 03:49:44;;;;;;;28.33;17.30;;;-2.10;96.20;;;-3.00;87.64;96812.16;5010831;28;20455;-69
2022/12/16 03:52:11;;;;;;;28.90;18.10;;;-2.20;95.20;;;-2.81;87.35;96818.16;5023633;28;20466;-70
2022/12/16 03:54:39;;;;;;;28.00;17.27;;;-2.20;96.10;;;-2.94;87.83;96815.13;5016449;28;20472;-71
2022/12/16 03:57:06;;;;;;;28.80;17.07;;;-2.20;94.80;;;-3.26;88.17;96796.38;5024210;28;20589;-72
2022/12/16 03:59:33;;;;;;;31.97;20.27;;;-2.30;94.90;;;-3.02;88.86;96808.00;5019488;28;20816;-70
2022/12/16 04:02:00;;;;;;;28.67;18.30;;;-2.40;96.40;;;-2.94;88.44;96804.56;5015959;28;20467;-69
2022/12/16 04:04:29;;;;;;;33.57;18.97;;;-2.30;96.80;;;-3.07;88.45;96812.94;5016836;28;20601;-71
2022/12/16 04:09:37;;;;;;;26.00;17.60;;;-2.40;97.00;;;-3.38;89.70;96806.34;5018702;28;20488;-69
2022/12/16 04:25:59;;;;;;;30.47;19.50;;;-2.50;99.90;;;-3.27;89.63;96799.97;5025811;28;20467;-69
2022/12/16 04:28:26;;;;;;;30.70;19.03;;;-2.40;99.20;;;-3.22;89.89;96823.28;5024070;28;20966;-69
2022/12/16 04:30:54;;;;;;;31.77;19.27;;;-2.40;98.80;;;-3.31;89.38;96814.47;5018824;28;20473;-70
